sensor_id;sensor_type;location;lat;lon;timestamp;P1;durP1;ratioP1;P2;durP2;ratioP2
16954;SDS011;8594;52.052;8.354;2024-03-07T00:00:09;32.13;;;16.37;;
16954;SDS011;8594;52.052;8.354;2024-03-07T00:02:42;35.93;;;18.37;;
16954;SDS011;8594;52.052;8.354;2024-03-07T00:05:09;34.30;;;17.93;;
16954;SDS011;8594;52.052;8.354;2024-03-07T00:07:37;36.13;;;17.43;;
16954;SDS011;8594;52.052;8.354;2024-03-07T00:10:05;34.87;;;17.30;;
16954;SDS011;8594;52.052;8.354;2024-03-07T00:12:33;34.37;;;16.93;;
16954;SDS011;8594;52.052;8.354;2024-03-07T00:15:02;31.23;;;17.07;;
16954;SDS011;8594;52.052;8.354;2024-03-07T00:17:31;31.30;;;16.80;;
16954;SDS011;8594;52.052;8.354;2024-03-07T00:19:58;32.23;;;16.07;;
16954;SDS011;8594;52.052;8.354;2024-03-07T00:22:24;37.00;;;16.43;;
16954;SDS011;8594;52.052;8.354;2024-03-07T00:24:53;34.37;;;17.60;;
16954;SDS011;8594;52.052;8.354;2024-03-07T00:27:19;33.60;;;17.10;;
16954;SDS011;8594;52.052;8.354;2024-03-07T00:29:46;30.40;;;15.63;;
16954;SDS011;8594;52.052;8.354;2024-03-07T00:32:19;29.93;;;15.50;;
16954;SDS011;8594;52.052;8.354;2024-03-07T00:34:46;33.27;;;16.93;;
16954;SDS011;8594;52.052;8.354;2024-03-07T00:37:13;29.53;;;15.57;;
16954;SDS011;8594;52.052;8.354;2024-03-07T00:39:39;30.37;;;15.20;;
16954;SDS011;8594;52.052;8.354;2024-03-07T00:42:06;32.80;;;16.57;;
16954;SDS011;8594;52.052;8.354;2024-03-07T00:44:33;34.57;;;17.23;;
16954;SDS011;8594;52.052;8.354;2024-03-07T00:47:00;28.90;;;15.73;;
16954;SDS011;8594;52.052;8.354;2024-03-07T00:49:28;30.93;;;16.57;;
16954;SDS011;8594;52.052;8.354;2024-03-07T00:51:55;31.00;;;16.83;;
16954;SDS011;8594;52.052;8.354;2024-03-07T00:54:22;33.37;;;17.33;;
16954;SDS011;8594;52.052;8.354;2024-03-07T00:56:49;31.30;;;16.03;;
16954;SDS011;8594;52.052;8.354;2024-03-07T00:59:15;32.40;;;16.80;;
16954;SDS011;8594;52.052;8.354;2024-03-07T01:01:42;33.23;;;17.37;;
16954;SDS011;8594;52.052;8.354;2024-03-07T01:04:10;35.87;;;17.97;;
16954;SDS011;8594;52.052;8.354;2024-03-07T01:06:38;35.63;;;17.90;;
16954;SDS011;8594;52.052;8.354;2024-03-07T01:09:05;33.20;;;17.47;;
16954;SDS011;8594;52.052;8.354;2024-03-07T01:11:38;33.40;;;16.57;;
16954;SDS011;8594;52.052;8.354;2024-03-07T01:14:06;34.97;;;17.00;;
16954;SDS011;8594;52.052;8.354;2024-03-07T01:16:33;32.80;;;17.33;;
16954;SDS011;8594;52.052;8.354;2024-03-07T01:19:00;32.73;;;17.43;;
16954;SDS011;8594;52.052;8.354;2024-03-07T01:21:28;34.47;;;17.13;;
16954;SDS011;8594;52.052;8.354;2024-03-07T01:23:57;37.70;;;18.20;;
16954;SDS011;8594;52.052;8.354;2024-03-07T01:26:25;31.63;;;16.97;;
16954;SDS011;8594;52.052;8.354;2024-03-07T01:28:52;35.60;;;17.30;;
16954;SDS011;8594;52.052;8.354;2024-03-07T01:31:19;34.67;;;18.27;;
16954;SDS011;8594;52.052;8.354;2024-03-07T01:33:47;32.33;;;16.53;;
16954;SDS011;8594;52.052;8.354;2024-03-07T01:36:14;36.50;;;18.50;;
16954;SDS011;8594;52.052;8.354;2024-03-07T01:38:41;35.93;;;18.00;;
16954;SDS011;8594;52.052;8.354;2024-03-07T01:41:09;33.13;;;18.03;;
16954;SDS011;8594;52.052;8.354;2024-03-07T01:43:36;35.07;;;18.43;;
16954;SDS011;8594;52.052;8.354;2024-03-07T01:46:03;34.40;;;17.07;;
16954;SDS011;8594;52.052;8.354;2024-03-07T01:48:30;31.07;;;17.20;;
16954;SDS011;8594;52.052;8.354;2024-03-07T01:50:58;35.17;;;17.53;;
16954;SDS011;8594;52.052;8.354;2024-03-07T01:53:28;32.40;;;16.80;;
16954;SDS011;8594;52.052;8.354;2024-03-07T01:55:56;34.23;;;17.97;;
16954;SDS011;8594;52.052;8.354;2024-03-07T01:58:26;32.10;;;17.33;;
16954;SDS011;8594;52.052;8.354;2024-03-07T02:00:55;31.43;;;16.57;;
16954;SDS011;8594;52.052;8.354;2024-03-07T02:03:23;29.30;;;16.20;;
16954;SDS011;8594;52.052;8.354;2024-03-07T02:05:49;28.90;;;16.50;;
16954;SDS011;8594;52.052;8.354;2024-03-07T02:08:17;36.73;;;17.97;;
16954;SDS011;8594;52.052;8.354;2024-03-07T02:10:44;32.47;;;17.37;;
16954;SDS011;8594;52.052;8.354;2024-03-07T02:13:11;35.57;;;17.03;;
16954;SDS011;8594;52.052;8.354;2024-03-07T02:15:39;32.93;;;17.27;;
16954;SDS011;8594;52.052;8.354;2024-03-07T02:18:07;34.70;;;18.37;;
16954;SDS011;8594;52.052;8.354;2024-03-07T02:20:34;33.70;;;18.07;;
16954;SDS011;8594;52.052;8.354;2024-03-07T02:23:02;33.83;;;19.17;;
16954;SDS011;8594;52.052;8.354;2024-03-07T02:25:29;36.10;;;19.13;;
16954;SDS011;8594;52.052;8.354;2024-03-07T02:27:57;36.13;;;18.77;;
16954;SDS011;8594;52.052;8.354;2024-03-07T02:30:23;36.17;;;18.77;;
16954;SDS011;8594;52.052;8.354;2024-03-07T02:32:50;36.80;;;18.30;;
16954;SDS011;8594;52.052;8.354;2024-03-07T02:35:19;31.53;;;17.17;;
16954;SDS011;8594;52.052;8.354;2024-03-07T02:37:46;37.93;;;19.37;;
16954;SDS011;8594;52.052;8.354;2024-03-07T02:40:15;37.47;;;18.40;;
16954;SDS011;8594;52.052;8.354;2024-03-07T02:42:42;33.70;;;18.17;;
16954;SDS011;8594;52.052;8.354;2024-03-07T02:45:09;33.33;;;17.53;;
16954;SDS011;8594;52.052;8.354;2024-03-07T02:47:37;36.10;;;18.73;;
16954;SDS011;8594;52.052;8.354;2024-03-07T02:50:06;36.80;;;18.33;;
16954;SDS011;8594;52.052;8.354;2024-03-07T02:52:34;34.93;;;18.13;;
16954;SDS011;8594;52.052;8.354;2024-03-07T02:55:01;32.07;;;17.83;;
16954;SDS011;8594;52.052;8.354;2024-03-07T02:57:31;38.07;;;18.97;;
16954;SDS011;8594;52.052;8.354;2024-03-07T02:59:58;35.43;;;18.30;;
16954;SDS011;8594;52.052;8.354;2024-03-07T03:02:25;38.00;;;19.50;;
16954;SDS011;8594;52.052;8.354;2024-03-07T03:04:52;43.00;;;20.23;;
16954;SDS011;8594;52.052;8.354;2024-03-07T03:07:19;35.40;;;18.77;;
16954;SDS011;8594;52.052;8.354;2024-03-07T03:09:46;37.80;;;19.93;;
16954;SDS011;8594;52.052;8.354;2024-03-07T03:12:13;35.43;;;18.93;;
16954;SDS011;8594;52.052;8.354;2024-03-07T03:14:42;36.13;;;19.70;;
16954;SDS011;8594;52.052;8.354;2024-03-07T03:17:09;40.57;;;20.40;;
16954;SDS011;8594;52.052;8.354;2024-03-07T03:19:36;42.30;;;21.17;;
16954;SDS011;8594;52.052;8.354;2024-03-07T03:22:03;37.40;;;20.60;;
16954;SDS011;8594;52.052;8.354;2024-03-07T03:24:30;39.83;;;21.20;;
16954;SDS011;8594;52.052;8.354;2024-03-07T03:26:56;40.00;;;20.37;;
16954;SDS011;8594;52.052;8.354;2024-03-07T03:29:23;45.07;;;21.23;;
16954;SDS011;8594;52.052;8.354;2024-03-07T03:31:54;44.47;;;22.17;;
16954;SDS011;8594;52.052;8.354;2024-03-07T03:34:21;47.13;;;22.70;;
16954;SDS011;8594;52.052;8.354;2024-03-07T03:36:48;47.73;;;21.80;;
16954;SDS011;8594;52.052;8.354;2024-03-07T03:39:14;43.33;;;21.47;;
16954;SDS011;8594;52.052;8.354;2024-03-07T03:41:41;46.23;;;22.40;;
16954;SDS011;8594;52.052;8.354;2024-03-07T03:44:08;47.07;;;22.53;;
16954;SDS011;8594;52.052;8.354;2024-03-07T03:46:36;50.17;;;22.50;;
16954;SDS011;8594;52.052;8.354;2024-03-07T03:49:04;46.83;;;23.13;;
16954;SDS011;8594;52.052;8.354;2024-03-07T03:51:31;47.50;;;22.47;;
16954;SDS011;8594;52.052;8.354;2024-03-07T03:53:58;51.77;;;24.40;;
16954;SDS011;8594;52.052;8.354;2024-03-07T03:56:25;52.30;;;22.47;;
16954;SDS011;8594;52.052;8.354;2024-03-07T03:58:51;47.70;;;23.13;;
16954;SDS011;8594;52.052;8.354;2024-03-07T04:01:18;49.50;;;24.13;;
16954;SDS011;8594;52.052;8.354;2024-03-07T04:03:45;53.23;;;25.07;;
16954;SDS011;8594;52.052;8.354;2024-03-07T04:06:13;51.80;;;24.00;;
16954;SDS011;8594;52.052;8.354;2024-03-07T04:08:40;49.00;;;24.33;;
16954;SDS011;8594;52.052;8.354;2024-03-07T04:11:06;55.77;;;26.10;;
16954;SDS011;8594;52.052;8.354;2024-03-07T04:13:34;52.67;;;24.67;;
16954;SDS011;8594;52.052;8.354;2024-03-07T04:16:01;53.10;;;25.27;;
16954;SDS011;8594;52.052;8.354;2024-03-07T04:18:29;64.37;;;26.30;;
16954;SDS011;8594;52.052;8.354;2024-03-07T04:20:57;55.67;;;25.67;;
16954;SDS011;8594;52.052;8.354;2024-03-07T04:23:25;56.87;;;25.77;;
16954;SDS011;8594;52.052;8.354;2024-03-07T04:25:52;50.47;;;24.90;;
16954;SDS011;8594;52.052;8.354;2024-03-07T04:28:21;51.77;;;25.63;;
16954;SDS011;8594;52.052;8.354;2024-03-07T04:30:47;54.53;;;25.73;;
16954;SDS011;8594;52.052;8.354;2024-03-07T04:33:14;55.83;;;26.67;;
16954;SDS011;8594;52.052;8.354;2024-03-07T04:35:41;60.13;;;26.90;;
16954;SDS011;8594;52.052;8.354;2024-03-07T04:38:08;65.13;;;27.40;;
16954;SDS011;8594;52.052;8.354;2024-03-07T04:40:37;53.00;;;26.40;;
16954;SDS011;8594;52.052;8.354;2024-03-07T04:43:04;64.93;;;27.77;;
16954;SDS011;8594;52.052;8.354;2024-03-07T04:45:32;59.13;;;27.03;;
16954;SDS011;8594;52.052;8.354;2024-03-07T04:47:59;62.33;;;27.57;;
16954;SDS011;8594;52.052;8.354;2024-03-07T04:50:26;61.90;;;28.93;;
16954;SDS011;8594;52.052;8.354;2024-03-07T04:52:53;57.47;;;27.03;;
16954;SDS011;8594;52.052;8.354;2024-03-07T04:55:20;62.20;;;26.57;;
16954;SDS011;8594;52.052;8.354;2024-03-07T04:57:48;56.67;;;27.23;;
16954;SDS011;8594;52.052;8.354;2024-03-07T05:00:15;58.13;;;27.50;;
16954;SDS011;8594;52.052;8.354;2024-03-07T05:02:44;54.40;;;27.13;;
16954;SDS011;8594;52.052;8.354;2024-03-07T05:05:13;51.80;;;25.60;;
16954;SDS011;8594;52.052;8.354;2024-03-07T05:07:45;58.63;;;26.70;;
16954;SDS011;8594;52.052;8.354;2024-03-07T05:10:12;62.17;;;27.53;;
16954;SDS011;8594;52.052;8.354;2024-03-07T05:12:39;59.90;;;27.67;;
16954;SDS011;8594;52.052;8.354;2024-03-07T05:15:07;58.90;;;27.10;;
16954;SDS011;8594;52.052;8.354;2024-03-07T05:17:35;63.53;;;28.43;;
16954;SDS011;8594;52.052;8.354;2024-03-07T05:20:04;58.37;;;26.90;;
16954;SDS011;8594;52.052;8.354;2024-03-07T05:22:35;72.57;;;28.80;;
16954;SDS011;8594;52.052;8.354;2024-03-07T05:25:04;62.07;;;28.53;;
16954;SDS011;8594;52.052;8.354;2024-03-07T05:27:32;61.93;;;27.67;;
16954;SDS011;8594;52.052;8.354;2024-03-07T05:30:01;64.67;;;29.03;;
16954;SDS011;8594;52.052;8.354;2024-03-07T05:32:30;64.60;;;28.50;;
16954;SDS011;8594;52.052;8.354;2024-03-07T05:34:59;61.23;;;28.03;;
16954;SDS011;8594;52.052;8.354;2024-03-07T05:37:26;62.10;;;28.07;;
16954;SDS011;8594;52.052;8.354;2024-03-07T05:39:53;63.73;;;28.73;;
16954;SDS011;8594;52.052;8.354;2024-03-07T05:42:20;61.13;;;26.33;;
16954;SDS011;8594;52.052;8.354;2024-03-07T05:44:46;59.53;;;26.20;;
16954;SDS011;8594;52.052;8.354;2024-03-07T05:47:13;57.97;;;27.20;;
16954;SDS011;8594;52.052;8.354;2024-03-07T05:49:42;56.80;;;26.30;;
16954;SDS011;8594;52.052;8.354;2024-03-07T05:52:09;54.23;;;25.50;;
16954;SDS011;8594;52.052;8.354;2024-03-07T05:54:36;56.10;;;26.80;;
16954;SDS011;8594;52.052;8.354;2024-03-07T05:57:03;51.13;;;26.23;;
16954;SDS011;8594;52.052;8.354;2024-03-07T05:59:31;58.67;;;26.47;;
16954;SDS011;8594;52.052;8.354;2024-03-07T06:01:58;55.07;;;26.13;;
16954;SDS011;8594;52.052;8.354;2024-03-07T06:04:25;57.30;;;28.23;;
16954;SDS011;8594;52.052;8.354;2024-03-07T06:06:53;59.40;;;25.83;;
16954;SDS011;8594;52.052;8.354;2024-03-07T06:09:20;58.27;;;27.83;;
16954;SDS011;8594;52.052;8.354;2024-03-07T06:11:47;53.53;;;26.13;;
16954;SDS011;8594;52.052;8.354;2024-03-07T06:14:15;52.70;;;26.47;;
16954;SDS011;8594;52.052;8.354;2024-03-07T06:16:43;57.63;;;24.80;;
16954;SDS011;8594;52.052;8.354;2024-03-07T06:19:10;54.20;;;25.27;;
16954;SDS011;8594;52.052;8.354;2024-03-07T06:21:38;56.77;;;26.20;;
16954;SDS011;8594;52.052;8.354;2024-03-07T06:24:08;56.33;;;26.23;;
16954;SDS011;8594;52.052;8.354;2024-03-07T06:26:37;54.33;;;25.93;;
16954;SDS011;8594;52.052;8.354;2024-03-07T06:29:12;55.43;;;26.53;;
16954;SDS011;8594;52.052;8.354;2024-03-07T06:31:41;52.70;;;25.83;;
16954;SDS011;8594;52.052;8.354;2024-03-07T06:34:08;51.47;;;25.97;;
16954;SDS011;8594;52.052;8.354;2024-03-07T06:36:35;58.40;;;26.90;;
16954;SDS011;8594;52.052;8.354;2024-03-07T06:39:02;56.53;;;26.47;;
16954;SDS011;8594;52.052;8.354;2024-03-07T06:41:32;52.87;;;25.37;;
16954;SDS011;8594;52.052;8.354;2024-03-07T06:43:59;53.47;;;26.47;;
16954;SDS011;8594;52.052;8.354;2024-03-07T06:46:26;49.40;;;25.47;;
16954;SDS011;8594;52.052;8.354;2024-03-07T06:48:53;58.17;;;26.00;;
16954;SDS011;8594;52.052;8.354;2024-03-07T06:51:21;58.90;;;26.23;;
16954;SDS011;8594;52.052;8.354;2024-03-07T06:53:48;51.70;;;24.37;;
16954;SDS011;8594;52.052;8.354;2024-03-07T06:56:15;53.80;;;25.10;;
16954;SDS011;8594;52.052;8.354;2024-03-07T06:58:44;52.73;;;25.10;;
16954;SDS011;8594;52.052;8.354;2024-03-07T07:01:11;49.23;;;24.23;;
16954;SDS011;8594;52.052;8.354;2024-03-07T07:03:40;53.07;;;25.77;;
16954;SDS011;8594;52.052;8.354;2024-03-07T07:06:09;49.93;;;23.83;;
16954;SDS011;8594;52.052;8.354;2024-03-07T07:08:36;51.80;;;24.90;;
16954;SDS011;8594;52.052;8.354;2024-03-07T07:11:03;51.67;;;24.37;;
16954;SDS011;8594;52.052;8.354;2024-03-07T07:13:30;54.20;;;24.97;;
16954;SDS011;8594;52.052;8.354;2024-03-07T07:15:58;51.73;;;23.23;;
16954;SDS011;8594;52.052;8.354;2024-03-07T07:18:26;53.67;;;25.80;;
16954;SDS011;8594;52.052;8.354;2024-03-07T07:20:52;50.40;;;24.70;;
16954;SDS011;8594;52.052;8.354;2024-03-07T07:23:21;49.90;;;22.83;;
16954;SDS011;8594;52.052;8.354;2024-03-07T07:25:48;49.27;;;23.63;;
16954;SDS011;8594;52.052;8.354;2024-03-07T07:28:15;58.30;;;23.63;;
16954;SDS011;8594;52.052;8.354;2024-03-07T07:30:41;50.37;;;23.50;;
16954;SDS011;8594;52.052;8.354;2024-03-07T07:33:10;49.17;;;22.63;;
16954;SDS011;8594;52.052;8.354;2024-03-07T07:35:37;53.33;;;23.67;;
16954;SDS011;8594;52.052;8.354;2024-03-07T07:38:04;50.83;;;23.50;;
16954;SDS011;8594;52.052;8.354;2024-03-07T07:40:32;47.03;;;22.03;;
16954;SDS011;8594;52.052;8.354;2024-03-07T07:42:58;54.13;;;22.87;;
16954;SDS011;8594;52.052;8.354;2024-03-07T07:45:26;46.90;;;21.60;;
16954;SDS011;8594;52.052;8.354;2024-03-07T07:47:53;47.43;;;21.77;;
16954;SDS011;8594;52.052;8.354;2024-03-07T07:50:22;47.30;;;21.97;;
16954;SDS011;8594;52.052;8.354;2024-03-07T07:52:50;44.93;;;24.13;;
16954;SDS011;8594;52.052;8.354;2024-03-07T07:55:19;47.50;;;22.50;;
16954;SDS011;8594;52.052;8.354;2024-03-07T07:57:48;47.23;;;22.50;;
16954;SDS011;8594;52.052;8.354;2024-03-07T08:00:19;44.03;;;20.67;;
16954;SDS011;8594;52.052;8.354;2024-03-07T08:02:50;51.83;;;23.63;;
16954;SDS011;8594;52.052;8.354;2024-03-07T08:05:19;50.03;;;22.57;;
16954;SDS011;8594;52.052;8.354;2024-03-07T08:07:49;50.80;;;23.60;;
16954;SDS011;8594;52.052;8.354;2024-03-07T08:10:16;46.60;;;23.37;;
16954;SDS011;8594;52.052;8.354;2024-03-07T08:12:44;52.80;;;24.73;;
16954;SDS011;8594;52.052;8.354;2024-03-07T08:15:11;53.63;;;24.23;;
16954;SDS011;8594;52.052;8.354;2024-03-07T08:17:40;48.97;;;23.37;;
16954;SDS011;8594;52.052;8.354;2024-03-07T08:20:09;48.60;;;23.87;;
16954;SDS011;8594;52.052;8.354;2024-03-07T08:22:39;49.40;;;24.73;;
16954;SDS011;8594;52.052;8.354;2024-03-07T08:25:07;47.73;;;23.50;;
16954;SDS011;8594;52.052;8.354;2024-03-07T08:27:36;51.97;;;23.07;;
16954;SDS011;8594;52.052;8.354;2024-03-07T08:30:03;54.23;;;24.50;;
16954;SDS011;8594;52.052;8.354;2024-03-07T08:32:32;48.27;;;22.67;;
16954;SDS011;8594;52.052;8.354;2024-03-07T08:35:01;53.13;;;23.67;;
16954;SDS011;8594;52.052;8.354;2024-03-07T08:37:31;50.13;;;23.50;;
16954;SDS011;8594;52.052;8.354;2024-03-07T08:40:02;53.33;;;23.77;;
16954;SDS011;8594;52.052;8.354;2024-03-07T08:42:32;48.03;;;23.90;;
16954;SDS011;8594;52.052;8.354;2024-03-07T08:45:00;51.70;;;23.83;;
16954;SDS011;8594;52.052;8.354;2024-03-07T08:47:29;44.63;;;22.03;;
16954;SDS011;8594;52.052;8.354;2024-03-07T08:49:56;50.47;;;22.83;;
16954;SDS011;8594;52.052;8.354;2024-03-07T08:52:23;44.27;;;22.67;;
16954;SDS011;8594;52.052;8.354;2024-03-07T08:54:50;48.77;;;23.67;;
16954;SDS011;8594;52.052;8.354;2024-03-07T08:57:18;52.70;;;25.17;;
16954;SDS011;8594;52.052;8.354;2024-03-07T08:59:45;53.00;;;25.83;;
16954;SDS011;8594;52.052;8.354;2024-03-07T09:02:12;57.20;;;26.50;;
16954;SDS011;8594;52.052;8.354;2024-03-07T09:04:39;52.33;;;25.07;;
16954;SDS011;8594;52.052;8.354;2024-03-07T09:07:06;50.53;;;24.27;;
16954;SDS011;8594;52.052;8.354;2024-03-07T09:09:34;57.40;;;27.00;;
16954;SDS011;8594;52.052;8.354;2024-03-07T09:12:01;60.97;;;26.67;;
16954;SDS011;8594;52.052;8.354;2024-03-07T09:14:29;54.20;;;26.07;;
16954;SDS011;8594;52.052;8.354;2024-03-07T09:16:56;61.60;;;27.27;;
16954;SDS011;8594;52.052;8.354;2024-03-07T09:19:23;61.97;;;28.87;;
16954;SDS011;8594;52.052;8.354;2024-03-07T09:21:50;54.67;;;24.70;;
16954;SDS011;8594;52.052;8.354;2024-03-07T09:24:18;58.47;;;25.27;;
16954;SDS011;8594;52.052;8.354;2024-03-07T09:26:47;57.57;;;28.17;;
16954;SDS011;8594;52.052;8.354;2024-03-07T09:29:14;56.03;;;26.17;;
16954;SDS011;8594;52.052;8.354;2024-03-07T09:31:44;69.13;;;26.70;;
16954;SDS011;8594;52.052;8.354;2024-03-07T09:34:11;60.67;;;27.33;;
16954;SDS011;8594;52.052;8.354;2024-03-07T09:36:39;59.90;;;27.23;;
16954;SDS011;8594;52.052;8.354;2024-03-07T09:39:06;62.63;;;26.57;;
16954;SDS011;8594;52.052;8.354;2024-03-07T09:41:34;57.53;;;25.67;;
16954;SDS011;8594;52.052;8.354;2024-03-07T09:44:01;64.47;;;27.73;;
16954;SDS011;8594;52.052;8.354;2024-03-07T09:46:28;64.73;;;27.53;;
16954;SDS011;8594;52.052;8.354;2024-03-07T09:48:58;63.97;;;27.90;;
16954;SDS011;8594;52.052;8.354;2024-03-07T09:51:26;68.00;;;27.53;;
16954;SDS011;8594;52.052;8.354;2024-03-07T09:53:56;64.50;;;29.37;;
16954;SDS011;8594;52.052;8.354;2024-03-07T09:56:24;67.50;;;28.30;;
16954;SDS011;8594;52.052;8.354;2024-03-07T09:58:57;65.00;;;27.83;;
16954;SDS011;8594;52.052;8.354;2024-03-07T10:01:26;62.57;;;27.00;;
16954;SDS011;8594;52.052;8.354;2024-03-07T10:03:57;60.03;;;25.73;;
16954;SDS011;8594;52.052;8.354;2024-03-07T10:06:35;59.23;;;25.40;;
16954;SDS011;8594;52.052;8.354;2024-03-07T10:09:02;59.70;;;26.23;;
16954;SDS011;8594;52.052;8.354;2024-03-07T10:11:29;57.13;;;24.13;;
16954;SDS011;8594;52.052;8.354;2024-03-07T10:13:56;60.17;;;25.47;;
16954;SDS011;8594;52.052;8.354;2024-03-07T10:16:23;60.23;;;26.57;;
16954;SDS011;8594;52.052;8.354;2024-03-07T10:18:50;61.07;;;25.47;;
16954;SDS011;8594;52.052;8.354;2024-03-07T10:21:20;56.33;;;25.40;;
16954;SDS011;8594;52.052;8.354;2024-03-07T10:23:49;56.40;;;25.07;;
16954;SDS011;8594;52.052;8.354;2024-03-07T10:26:17;56.43;;;25.93;;
16954;SDS011;8594;52.052;8.354;2024-03-07T10:28:43;66.17;;;26.30;;
16954;SDS011;8594;52.052;8.354;2024-03-07T10:31:10;70.67;;;27.23;;
16954;SDS011;8594;52.052;8.354;2024-03-07T10:33:40;68.13;;;26.00;;
16954;SDS011;8594;52.052;8.354;2024-03-07T10:36:09;62.60;;;26.60;;
16954;SDS011;8594;52.052;8.354;2024-03-07T10:38:40;70.40;;;26.90;;
16954;SDS011;8594;52.052;8.354;2024-03-07T10:41:06;67.90;;;28.03;;
16954;SDS011;8594;52.052;8.354;2024-03-07T10:43:35;71.87;;;30.33;;
16954;SDS011;8594;52.052;8.354;2024-03-07T10:46:06;66.23;;;28.73;;
16954;SDS011;8594;52.052;8.354;2024-03-07T10:48:38;73.30;;;27.27;;
16954;SDS011;8594;52.052;8.354;2024-03-07T10:51:09;65.10;;;24.63;;
16954;SDS011;8594;52.052;8.354;2024-03-07T10:53:52;73.23;;;28.97;;
16954;SDS011;8594;52.052;8.354;2024-03-07T10:56:42;66.17;;;25.00;;
16954;SDS011;8594;52.052;8.354;2024-03-07T10:59:24;73.47;;;26.83;;
16954;SDS011;8594;52.052;8.354;2024-03-07T11:01:53;71.23;;;26.70;;
16954;SDS011;8594;52.052;8.354;2024-03-07T11:04:25;68.77;;;26.40;;
16954;SDS011;8594;52.052;8.354;2024-03-07T11:06:54;67.90;;;27.37;;
16954;SDS011;8594;52.052;8.354;2024-03-07T11:09:22;62.13;;;24.03;;
16954;SDS011;8594;52.052;8.354;2024-03-07T11:11:54;69.17;;;28.33;;
16954;SDS011;8594;52.052;8.354;2024-03-07T11:14:22;71.63;;;26.63;;
16954;SDS011;8594;52.052;8.354;2024-03-07T11:16:51;67.57;;;26.67;;
16954;SDS011;8594;52.052;8.354;2024-03-07T11:19:20;72.20;;;27.80;;
16954;SDS011;8594;52.052;8.354;2024-03-07T11:21:52;60.53;;;24.50;;
16954;SDS011;8594;52.052;8.354;2024-03-07T11:24:26;58.27;;;24.17;;
16954;SDS011;8594;52.052;8.354;2024-03-07T11:26:54;67.10;;;25.87;;
16954;SDS011;8594;52.052;8.354;2024-03-07T11:29:38;64.77;;;27.50;;
16954;SDS011;8594;52.052;8.354;2024-03-07T11:32:13;69.97;;;25.83;;
16954;SDS011;8594;52.052;8.354;2024-03-07T11:34:41;61.90;;;25.80;;
16954;SDS011;8594;52.052;8.354;2024-03-07T11:37:16;68.03;;;25.70;;
16954;SDS011;8594;52.052;8.354;2024-03-07T11:39:48;72.80;;;26.37;;
16954;SDS011;8594;52.052;8.354;2024-03-07T11:42:25;66.63;;;28.93;;
16954;SDS011;8594;52.052;8.354;2024-03-07T11:44:53;66.47;;;26.93;;
16954;SDS011;8594;52.052;8.354;2024-03-07T11:47:22;72.03;;;26.97;;
16954;SDS011;8594;52.052;8.354;2024-03-07T11:49:50;66.93;;;26.30;;
16954;SDS011;8594;52.052;8.354;2024-03-07T11:52:17;66.00;;;26.70;;
16954;SDS011;8594;52.052;8.354;2024-03-07T11:54:45;66.67;;;26.13;;
16954;SDS011;8594;52.052;8.354;2024-03-07T11:57:14;66.20;;;25.50;;
16954;SDS011;8594;52.052;8.354;2024-03-07T11:59:44;61.70;;;26.17;;
16954;SDS011;8594;52.052;8.354;2024-03-07T12:02:17;69.73;;;25.37;;
16954;SDS011;8594;52.052;8.354;2024-03-07T12:04:47;62.50;;;24.63;;
16954;SDS011;8594;52.052;8.354;2024-03-07T12:07:15;57.83;;;24.90;;
16954;SDS011;8594;52.052;8.354;2024-03-07T12:09:43;61.97;;;24.23;;
16954;SDS011;8594;52.052;8.354;2024-03-07T12:12:16;58.33;;;24.50;;
16954;SDS011;8594;52.052;8.354;2024-03-07T12:14:43;56.97;;;24.27;;
16954;SDS011;8594;52.052;8.354;2024-03-07T12:17:10;63.90;;;24.50;;
16954;SDS011;8594;52.052;8.354;2024-03-07T12:19:38;70.80;;;26.27;;
16954;SDS011;8594;52.052;8.354;2024-03-07T12:22:07;66.43;;;25.37;;
16954;SDS011;8594;52.052;8.354;2024-03-07T12:24:37;65.10;;;25.93;;
16954;SDS011;8594;52.052;8.354;2024-03-07T12:27:05;69.43;;;26.93;;
16954;SDS011;8594;52.052;8.354;2024-03-07T12:29:36;64.00;;;25.93;;
16954;SDS011;8594;52.052;8.354;2024-03-07T12:32:04;72.83;;;26.73;;
16954;SDS011;8594;52.052;8.354;2024-03-07T12:34:33;60.03;;;24.97;;
16954;SDS011;8594;52.052;8.354;2024-03-07T12:37:05;66.77;;;26.47;;
16954;SDS011;8594;52.052;8.354;2024-03-07T12:39:33;62.43;;;25.77;;
16954;SDS011;8594;52.052;8.354;2024-03-07T12:42:01;63.40;;;26.87;;
16954;SDS011;8594;52.052;8.354;2024-03-07T12:44:40;72.93;;;27.47;;
16954;SDS011;8594;52.052;8.354;2024-03-07T12:47:09;62.57;;;26.20;;
16954;SDS011;8594;52.052;8.354;2024-03-07T12:49:36;58.73;;;24.10;;
16954;SDS011;8594;52.052;8.354;2024-03-07T12:52:04;69.83;;;26.93;;
16954;SDS011;8594;52.052;8.354;2024-03-07T12:54:32;66.47;;;24.90;;
16954;SDS011;8594;52.052;8.354;2024-03-07T12:57:00;66.47;;;25.13;;
16954;SDS011;8594;52.052;8.354;2024-03-07T12:59:30;62.43;;;24.97;;
16954;SDS011;8594;52.052;8.354;2024-03-07T13:01:58;60.80;;;25.03;;
16954;SDS011;8594;52.052;8.354;2024-03-07T13:04:25;64.67;;;26.37;;
16954;SDS011;8594;52.052;8.354;2024-03-07T13:06:52;67.70;;;24.53;;
16954;SDS011;8594;52.052;8.354;2024-03-07T13:09:19;64.27;;;26.73;;
16954;SDS011;8594;52.052;8.354;2024-03-07T13:11:51;68.37;;;26.67;;
16954;SDS011;8594;52.052;8.354;2024-03-07T13:14:18;69.27;;;26.80;;
16954;SDS011;8594;52.052;8.354;2024-03-07T13:16:45;75.13;;;27.93;;
16954;SDS011;8594;52.052;8.354;2024-03-07T13:19:13;73.63;;;27.30;;
16954;SDS011;8594;52.052;8.354;2024-03-07T13:21:45;67.00;;;26.27;;
16954;SDS011;8594;52.052;8.354;2024-03-07T13:24:13;68.83;;;26.03;;
16954;SDS011;8594;52.052;8.354;2024-03-07T13:26:40;73.53;;;27.60;;
16954;SDS011;8594;52.052;8.354;2024-03-07T13:29:08;64.73;;;24.97;;
16954;SDS011;8594;52.052;8.354;2024-03-07T13:31:35;62.27;;;24.87;;
16954;SDS011;8594;52.052;8.354;2024-03-07T13:34:02;59.67;;;26.03;;
16954;SDS011;8594;52.052;8.354;2024-03-07T13:36:30;61.33;;;24.70;;
16954;SDS011;8594;52.052;8.354;2024-03-07T13:38:56;57.13;;;23.03;;
16954;SDS011;8594;52.052;8.354;2024-03-07T13:41:24;58.00;;;22.80;;
16954;SDS011;8594;52.052;8.354;2024-03-07T13:43:53;54.93;;;24.10;;
16954;SDS011;8594;52.052;8.354;2024-03-07T13:46:20;54.17;;;24.20;;
16954;SDS011;8594;52.052;8.354;2024-03-07T13:48:46;61.77;;;24.70;;
16954;SDS011;8594;52.052;8.354;2024-03-07T13:51:13;60.13;;;25.87;;
16954;SDS011;8594;52.052;8.354;2024-03-07T13:53:43;58.80;;;23.30;;
16954;SDS011;8594;52.052;8.354;2024-03-07T13:59:23;53.80;;;23.73;;
16954;SDS011;8594;52.052;8.354;2024-03-07T14:05:56;60.23;;;23.33;;
16954;SDS011;8594;52.052;8.354;2024-03-07T14:14:52;53.83;;;22.60;;
16954;SDS011;8594;52.052;8.354;2024-03-07T14:18:32;58.77;;;22.40;;
16954;SDS011;8594;52.052;8.354;2024-03-07T14:21:50;57.20;;;23.17;;
16954;SDS011;8594;52.052;8.354;2024-03-07T14:27:49;61.57;;;23.43;;
16954;SDS011;8594;52.052;8.354;2024-03-07T14:30:36;59.07;;;23.27;;
16954;SDS011;8594;52.052;8.354;2024-03-07T14:33:10;53.97;;;22.80;;
16954;SDS011;8594;52.052;8.354;2024-03-07T14:38:30;58.83;;;23.23;;
16954;SDS011;8594;52.052;8.354;2024-03-07T14:41:15;58.13;;;23.37;;
16954;SDS011;8594;52.052;8.354;2024-03-07T14:43:44;54.37;;;22.13;;
16954;SDS011;8594;52.052;8.354;2024-03-07T14:46:11;62.43;;;23.83;;
16954;SDS011;8594;52.052;8.354;2024-03-07T14:48:41;58.73;;;23.27;;
16954;SDS011;8594;52.052;8.354;2024-03-07T14:51:09;51.30;;;21.73;;
16954;SDS011;8594;52.052;8.354;2024-03-07T14:53:38;56.33;;;22.93;;
16954;SDS011;8594;52.052;8.354;2024-03-07T14:56:06;53.77;;;21.30;;
16954;SDS011;8594;52.052;8.354;2024-03-07T14:58:35;52.40;;;22.97;;
16954;SDS011;8594;52.052;8.354;2024-03-07T15:01:03;48.40;;;21.93;;